createdAt,value
2018-04-29T00:01:52.283Z,100308.34
2018-04-29T00:04:24.777Z,100310.53
2018-04-29T00:06:57.366Z,100309.16
2018-04-29T00:09:29.951Z,100315.47
2018-04-29T00:12:02.933Z,100310.36
2018-04-29T00:14:35.640Z,100306.97
2018-04-29T00:17:08.226Z,100309.59
2018-04-29T00:19:40.721Z,100300.10
2018-04-29T00:22:13.305Z,100301.39
2018-04-29T00:24:45.880Z,100296.34
2018-04-29T00:27:18.396Z,100291.32
2018-04-29T00:29:50.895Z,100303.00
2018-04-29T00:32:23.451Z,100295.37
2018-04-29T00:34:56.028Z,100284.93
2018-04-29T00:37:28.620Z,100291.91
2018-04-29T00:40:01.143Z,100299.44
2018-04-29T00:42:34.722Z,100297.52
2018-04-29T00:45:07.219Z,100295.16
2018-04-29T00:47:39.735Z,100295.38
2018-04-29T00:50:12.268Z,100290.78
2018-04-29T00:52:44.775Z,100291.75
2018-04-29T00:55:17.272Z,100290.30
2018-04-29T00:57:49.788Z,100291.27
2018-04-29T01:00:22.276Z,100288.78
2018-04-29T01:02:54.895Z,100291.53
2018-04-29T01:05:27.388Z,100294.41
2018-04-29T01:07:59.904Z,100292.61
2018-04-29T01:10:32.726Z,100293.95
2018-04-29T01:13:05.338Z,100286.36
2018-04-29T01:15:37.837Z,100288.92
2018-04-29T01:18:10.418Z,100289.47
2018-04-29T01:20:42.914Z,100289.42
2018-04-29T01:23:15.525Z,100286.94
2018-04-29T01:25:48.012Z,100284.33
2018-04-29T01:28:20.527Z,100283.80
2018-04-29T01:30:53.036Z,100279.44
2018-04-29T01:33:25.623Z,100287.37
2018-04-29T01:35:58.121Z,100287.83
2018-04-29T01:38:30.626Z,100290.36
2018-04-29T01:41:03.894Z,100292.09
2018-04-29T01:43:36.474Z,100285.21
2018-04-29T01:46:09.062Z,100287.28
2018-04-29T01:48:41.646Z,100282.05
2018-04-29T01:51:14.137Z,100276.23
2018-04-29T01:53:46.716Z,100281.80
2018-04-29T01:56:19.298Z,100283.49
2018-04-29T01:58:51.890Z,100293.29
2018-04-29T02:01:24.476Z,100288.03
2018-04-29T02:03:57.056Z,100299.31
2018-04-29T02:06:29.558Z,100299.44
2018-04-29T02:09:03.059Z,100305.17
2018-04-29T02:11:35.568Z,100299.73
2018-04-29T02:14:08.076Z,100298.61
2018-04-29T02:16:40.598Z,100300.52
2018-04-29T02:19:13.187Z,100301.56
2018-04-29T02:21:45.770Z,100296.25
2018-04-29T02:24:18.357Z,100294.39
2018-04-29T02:26:50.860Z,100288.91
2018-04-29T02:29:23.388Z,100277.22
2018-04-29T02:31:55.882Z,100274.28
2018-04-29T02:34:28.397Z,100276.80
2018-04-29T02:37:00.972Z,100269.55
2018-04-29T02:39:34.499Z,100273.31
2018-04-29T02:42:07.012Z,100272.89
2018-04-29T02:44:39.535Z,100269.38
2018-04-29T02:47:12.036Z,100279.20
2018-04-29T02:49:44.599Z,100272.48
2018-04-29T02:52:17.114Z,100273.05
2018-04-29T02:54:49.631Z,100272.86
2018-04-29T02:57:22.149Z,100271.73
2018-04-29T02:59:54.639Z,100271.73
2018-04-29T03:02:27.271Z,100272.75
2018-04-29T03:04:59.870Z,100267.05
2018-04-29T03:07:32.842Z,100271.73
2018-04-29T03:10:05.428Z,100275.13
2018-04-29T03:12:37.923Z,100273.47
2018-04-29T03:15:10.434Z,100268.38
2018-04-29T03:17:42.922Z,100263.39
2018-04-29T03:20:15.431Z,100258.53
2018-04-29T03:22:47.936Z,100267.48
2018-04-29T03:25:20.512Z,100268.92
2018-04-29T03:27:53.119Z,100262.17
2018-04-29T03:30:25.707Z,100269.91
2018-04-29T03:32:58.190Z,100278.53
2018-04-29T03:35:30.716Z,100275.59
2018-04-29T03:38:04.255Z,100274.41
2018-04-29T03:40:36.766Z,100274.20
2018-04-29T03:43:09.264Z,100270.72
2018-04-29T03:45:41.786Z,100271.09
2018-04-29T03:48:14.274Z,100270.72
2018-04-29T03:50:46.803Z,100271.63
2018-04-29T03:53:19.395Z,100275.86
2018-04-29T03:55:51.986Z,100272.45
2018-04-29T03:58:36.392Z,100261.88
2018-04-29T04:01:20.627Z,100258.56
2018-04-29T04:04:03.659Z,100261.17
2018-04-29T04:06:36.223Z,100247.66
2018-04-29T04:09:08.743Z,100262.77
2018-04-29T04:11:41.299Z,100262.99
2018-04-29T04:14:13.811Z,100260.55
2018-04-29T04:16:46.371Z,100274.13
2018-04-29T04:19:18.962Z,100284.36
2018-04-29T04:21:51.459Z,100285.27
2018-04-29T04:24:23.995Z,100283.23
2018-04-29T04:26:56.487Z,100285.42
2018-04-29T04:29:29.012Z,100268.91
2018-04-29T04:32:02.179Z,100267.93
2018-04-29T04:34:34.711Z,100265.73
2018-04-29T04:37:07.207Z,100266.73
2018-04-29T04:39:39.724Z,100260.78
2018-04-29T04:42:12.240Z,100255.91
2018-04-29T04:44:44.819Z,100254.72
2018-04-29T04:47:17.436Z,100260.66
2018-04-29T04:49:49.987Z,100261.33
2018-04-29T04:52:22.583Z,100256.91
2018-04-29T04:54:55.090Z,100264.72
2018-04-29T04:57:27.578Z,100270.53
2018-04-29T05:00:00.087Z,100273.80
2018-04-29T05:02:32.839Z,100276.27
2018-04-29T05:05:05.352Z,100288.91
2018-04-29T05:07:37.879Z,100293.23
2018-04-29T05:10:10.393Z,100287.71
2018-04-29T05:12:42.887Z,100286.61
2018-04-29T05:15:15.408Z,100297.97
2018-04-29T05:17:47.896Z,100294.20
2018-04-29T05:20:20.457Z,100291.01
2018-04-29T05:22:52.947Z,100285.69
2018-04-29T05:25:25.566Z,100287.92
2018-04-29T05:27:58.051Z,100292.92
2018-04-29T05:30:30.560Z,100289.16
2018-04-29T05:33:03.753Z,100289.73
2018-04-29T05:35:36.323Z,100285.45
2018-04-29T05:38:08.815Z,100287.83
2018-04-29T05:40:41.352Z,100286.28
2018-04-29T05:43:13.843Z,100285.69
2018-04-29T05:45:46.561Z,100294.94
2018-04-29T05:48:19.149Z,100297.69
2018-04-29T05:50:51.663Z,100302.20
2018-04-29T05:53:24.163Z,100300.91
2018-04-29T05:55:56.707Z,100302.55
2018-04-29T05:58:29.298Z,100302.05
2018-04-29T06:01:01.811Z,100309.66
2018-04-29T06:03:34.358Z,100307.34
2018-04-29T06:06:06.877Z,100311.77
2018-04-29T06:08:39.556Z,100310.54
2018-04-29T06:11:12.082Z,100300.42
2018-04-29T06:13:44.738Z,100296.16
2018-04-29T06:16:17.283Z,100299.16
2018-04-29T06:18:49.780Z,100294.69
2018-04-29T06:21:22.450Z,100293.75
2018-04-29T06:23:55.055Z,100295.05
2018-04-29T06:26:27.583Z,100299.20
2018-04-29T06:29:00.085Z,100296.86
2018-04-29T06:31:32.611Z,100295.75
2018-04-29T06:34:05.107Z,100292.93
2018-04-29T06:36:37.671Z,100300.59
2018-04-29T06:39:10.275Z,100300.34
2018-04-29T06:41:42.856Z,100306.83
2018-04-29T06:44:15.431Z,100306.78
2018-04-29T06:46:48.046Z,100304.87
2018-04-29T06:49:20.596Z,100306.62
2018-04-29T06:51:53.188Z,100304.23
2018-04-29T06:54:25.778Z,100307.66
2018-04-29T06:56:58.299Z,100306.05
2018-04-29T06:59:30.835Z,100300.51
2018-04-29T07:02:03.841Z,100310.03
2018-04-29T07:04:36.338Z,100307.91
2018-04-29T07:07:08.860Z,100301.20
2018-04-29T07:09:41.351Z,100300.92
2018-04-29T07:12:13.904Z,100308.40
2018-04-29T07:14:46.451Z,100310.88
2018-04-29T07:17:19.035Z,100310.67
2018-04-29T07:19:51.529Z,100307.97
2018-04-29T07:22:24.058Z,100307.58
2018-04-29T07:24:56.560Z,100305.55
2018-04-29T07:27:29.187Z,100293.05
2018-04-29T07:30:01.788Z,100287.63
2018-04-29T07:32:34.360Z,100291.38
2018-04-29T07:35:06.940Z,100291.63
2018-04-29T07:37:39.527Z,100281.02
2018-04-29T07:40:12.051Z,100281.77
2018-04-29T07:42:44.591Z,100284.06
2018-04-29T07:45:17.126Z,100282.76
2018-04-29T07:47:49.643Z,100274.08
2018-04-29T07:50:22.142Z,100276.56
2018-04-29T07:52:54.726Z,100267.78
2018-04-29T07:55:27.217Z,100270.55
2018-04-29T07:57:59.787Z,100265.66
2018-04-29T08:00:32.837Z,100267.51
2018-04-29T08:03:05.394Z,100255.03
2018-04-29T08:05:37.886Z,100253.42
2018-04-29T08:08:10.405Z,100248.44
2018-04-29T08:10:42.891Z,100249.75
2018-04-29T08:13:15.407Z,100248.34
2018-04-29T08:15:48.003Z,100248.77
2018-04-29T08:18:20.443Z,100256.06
2018-04-29T08:20:52.938Z,100245.88
2018-04-29T08:23:25.448Z,100239.60
2018-04-29T08:25:58.030Z,100247.26
2018-04-29T08:28:30.553Z,100245.41
2018-04-29T08:31:04.036Z,100245.50
2018-04-29T08:33:36.578Z,100234.55
2018-04-29T08:36:09.071Z,100229.27
2018-04-29T08:38:41.672Z,100234.34
2018-04-29T08:41:14.167Z,100239.95
2018-04-29T08:43:46.736Z,100239.78
2018-04-29T08:46:19.319Z,100243.50
2018-04-29T08:48:51.903Z,100243.36
2018-04-29T08:51:24.394Z,100247.02
2018-04-29T08:53:56.911Z,100240.02
2018-04-29T08:56:29.407Z,100236.11
2018-04-29T08:59:02.697Z,100252.39
2018-04-29T09:01:35.202Z,100254.95
2018-04-29T09:04:07.748Z,100254.39
2018-04-29T09:06:40.247Z,100254.11
2018-04-29T09:09:12.812Z,100243.25
2018-04-29T09:11:45.323Z,100247.28
2018-04-29T09:14:17.842Z,100241.26
2018-04-29T09:16:50.386Z,100246.29
2018-04-29T09:19:22.955Z,100231.27
2018-04-29T09:21:55.470Z,100228.44
2018-04-29T09:24:27.967Z,100228.23
2018-04-29T09:27:00.475Z,100240.14
2018-04-29T09:29:33.528Z,100231.70
2018-04-29T09:32:06.096Z,100231.85
2018-04-29T09:34:38.666Z,100225.30
2018-04-29T09:37:11.240Z,100230.28
2018-04-29T09:39:43.707Z,100217.09
2018-04-29T09:42:16.224Z,100216.84
2018-04-29T09:44:48.720Z,100218.19
2018-04-29T09:47:21.232Z,100216.96
2018-04-29T09:49:53.723Z,100210.67
2018-04-29T09:52:26.255Z,100211.31
2018-04-29T09:54:58.837Z,100210.14
2018-04-29T09:57:31.987Z,100212.59
2018-04-29T10:00:04.474Z,100209.63
2018-04-29T10:02:36.995Z,100201.89
2018-04-29T10:05:09.482Z,100204.97
2018-04-29T10:07:42.001Z,100208.03
2018-04-29T10:10:14.496Z,100213.71
2018-04-29T10:12:47.039Z,100211.08
2018-04-29T10:15:19.527Z,100214.42
2018-04-29T10:17:52.284Z,100214.16
2018-04-29T10:20:24.774Z,100212.78
2018-04-29T10:22:57.359Z,100197.61
2018-04-29T10:25:29.854Z,100191.98
2018-04-29T10:28:02.842Z,100188.30
2018-04-29T10:30:35.338Z,100189.02
2018-04-29T10:33:07.884Z,100187.45
2018-04-29T10:35:40.367Z,100197.02
2018-04-29T10:38:12.916Z,100194.80
2018-04-29T10:40:45.404Z,100185.44
2018-04-29T10:43:17.927Z,100183.01
2018-04-29T10:45:50.479Z,100180.28
2018-04-29T10:48:23.055Z,100186.66
2018-04-29T10:50:55.548Z,100185.67
2018-04-29T10:53:28.134Z,100189.77
2018-04-29T10:56:00.637Z,100176.88
2018-04-29T10:58:33.185Z,100178.93
2018-04-29T11:01:05.680Z,100186.75
2018-04-29T11:03:38.202Z,100184.62
2018-04-29T11:06:10.707Z,100161.12
2018-04-29T11:08:43.223Z,100167.95
2018-04-29T11:11:15.720Z,100174.11
2018-04-29T11:13:48.239Z,100165.28
2018-04-29T11:16:20.735Z,100157.77
2018-04-29T11:18:53.278Z,100161.02
2018-04-29T11:21:25.772Z,100148.02
2018-04-29T11:23:58.350Z,100145.68
2018-04-29T11:26:30.849Z,100147.14
2018-04-29T11:29:03.928Z,100145.95
2018-04-29T11:31:36.418Z,100142.87
2018-04-29T11:34:09.002Z,100142.19
2018-04-29T11:36:41.497Z,100149.17
2018-04-29T11:39:14.075Z,100143.74
2018-04-29T11:41:46.574Z,100125.58
2018-04-29T11:44:19.143Z,100126.73
2018-04-29T11:46:51.636Z,100131.74
2018-04-29T11:49:24.199Z,100138.94
2018-04-29T11:51:56.691Z,100136.97
2018-04-29T11:54:29.207Z,100133.12
2018-04-29T11:57:01.772Z,100135.59
2018-04-29T11:59:34.316Z,100127.27
2018-04-29T12:02:06.812Z,100130.48
2018-04-29T12:04:39.331Z,100131.25
2018-04-29T12:07:11.901Z,100114.19
2018-04-29T12:09:44.416Z,100115.41
2018-04-29T12:12:16.916Z,100113.78
2018-04-29T12:14:49.436Z,100109.27
2018-04-29T12:17:22.028Z,100103.81
2018-04-29T12:19:54.552Z,100093.84
2018-04-29T12:22:27.054Z,100091.80
2018-04-29T12:24:59.595Z,100078.66
2018-04-29T12:27:32.618Z,100073.27
2018-04-29T12:30:05.135Z,100066.89
2018-04-29T12:32:37.647Z,100065.84
2018-04-29T12:35:10.248Z,100064.88
2018-04-29T12:37:42.842Z,100069.92
2018-04-29T12:40:15.418Z,100064.70
2018-04-29T12:42:47.914Z,100053.54
2018-04-29T12:45:20.440Z,100048.63
2018-04-29T12:47:52.932Z,100027.46
2018-04-29T12:50:25.473Z,100022.48
2018-04-29T12:52:57.985Z,100011.53
2018-04-29T12:55:30.501Z,100022.12
2018-04-29T12:58:03.634Z,100021.69
2018-04-29T13:00:36.153Z,100016.13
2018-04-29T13:03:08.696Z,100008.52
2018-04-29T13:05:41.297Z,100014.19
2018-04-29T13:08:13.810Z,100007.33
2018-04-29T13:10:46.332Z,100010.78
2018-04-29T13:13:18.818Z,99998.69
2018-04-29T13:15:51.329Z,99995.26
2018-04-29T13:18:23.820Z,99986.63
2018-04-29T13:20:56.382Z,99988.44
2018-04-29T13:23:28.881Z,99981.89
2018-04-29T13:26:01.610Z,99985.05
2018-04-29T13:28:34.148Z,99970.16
2018-04-29T13:31:06.731Z,99964.75
2018-04-29T13:33:39.231Z,99959.66
2018-04-29T13:36:12.076Z,99950.66
2018-04-29T13:38:44.579Z,99947.76
2018-04-29T13:41:17.097Z,99944.09
2018-04-29T13:43:49.582Z,99938.77
2018-04-29T13:46:22.135Z,99930.36
2018-04-29T13:48:54.785Z,99926.50
2018-04-29T13:51:27.303Z,99923.99
2018-04-29T13:53:59.787Z,99915.30
2018-04-29T13:56:32.788Z,99908.78
2018-04-29T13:59:05.285Z,99904.45
2018-04-29T14:01:37.862Z,99905.09
2018-04-29T14:04:10.358Z,99895.19
2018-04-29T14:06:42.928Z,99891.07
2018-04-29T14:09:15.419Z,99888.67
2018-04-29T14:11:47.941Z,99882.47
2018-04-29T14:14:20.476Z,99893.17
2018-04-29T14:16:53.002Z,99885.45
2018-04-29T14:19:25.526Z,99879.74
2018-04-29T14:21:58.066Z,99873.13
2018-04-29T14:24:30.576Z,99867.48
2018-04-29T14:27:03.918Z,99865.83
2018-04-29T14:29:36.448Z,99867.34
2018-04-29T14:32:08.934Z,99857.28
2018-04-29T14:34:41.447Z,99851.14
2018-04-29T14:37:13.960Z,99852.72
2018-04-29T14:39:46.496Z,99845.59
2018-04-29T14:42:19.034Z,99849.52
2018-04-29T14:44:51.624Z,99855.38
2018-04-29T14:47:24.118Z,99847.63
2018-04-29T14:49:56.685Z,99837.98
2018-04-29T14:52:29.167Z,99850.66
2018-04-29T14:55:01.745Z,99840.80
2018-04-29T14:57:34.362Z,99838.89
2018-04-29T15:00:06.878Z,99846.19
2018-04-29T15:02:39.415Z,99843.07
2018-04-29T15:05:12.009Z,99831.91
2018-04-29T15:07:44.505Z,99819.18
2018-04-29T15:10:17.029Z,99821.97
2018-04-29T15:12:49.519Z,99822.58
2018-04-29T15:15:22.149Z,99820.25
2018-04-29T15:17:54.631Z,99815.39
2018-04-29T15:20:27.163Z,99802.84
2018-04-29T15:22:59.699Z,99814.66
2018-04-29T15:25:32.506Z,99815.12
2018-04-29T15:28:04.996Z,99808.12
2018-04-29T15:30:37.515Z,99809.33
2018-04-29T15:33:10.007Z,99816.82
2018-04-29T15:35:42.649Z,99816.11
2018-04-29T15:38:15.233Z,99815.75
2018-04-29T15:40:47.736Z,99812.78
2018-04-29T15:43:20.914Z,99808.53
2018-04-29T15:45:53.972Z,99806.97
2018-04-29T15:48:26.587Z,99800.19
2018-04-29T15:50:59.391Z,99800.88
2018-04-29T15:53:32.801Z,99804.43
2018-04-29T15:56:05.635Z,99799.83
2018-04-29T15:58:38.614Z,99800.42
2018-04-29T16:01:11.210Z,99805.94
2018-04-29T16:03:44.055Z,99810.00
2018-04-29T16:06:16.995Z,99808.31
2018-04-29T16:08:49.486Z,99814.36
2018-04-29T16:11:22.121Z,99811.84
2018-04-29T16:13:55.418Z,99815.84
2018-04-29T16:16:27.999Z,99813.98
2018-04-29T16:19:00.521Z,99810.50
2018-04-29T16:21:34.201Z,99824.38
2018-04-29T16:24:07.001Z,99834.11
2018-04-29T16:26:39.537Z,99839.02
2018-04-29T16:29:12.159Z,99841.64
2018-04-29T16:31:45.027Z,99840.82
2018-04-29T16:34:17.761Z,99838.90
2018-04-29T16:36:50.930Z,99838.72
2018-04-29T16:39:23.952Z,99834.88
2018-04-29T16:41:56.596Z,99843.84
2018-04-29T16:44:29.154Z,99839.46
2018-04-29T16:47:02.227Z,99836.92
2018-04-29T16:49:34.793Z,99831.75
2018-04-29T16:52:09.122Z,99835.47
2018-04-29T16:54:42.233Z,99831.63
2018-04-29T16:57:15.235Z,99838.30
2018-04-29T16:59:48.053Z,99835.34
2018-04-29T17:02:20.611Z,99830.86
2018-04-29T17:04:53.835Z,99819.00
2018-04-29T17:07:26.634Z,99804.50
2018-04-29T17:09:59.620Z,99795.53
2018-04-29T17:12:32.779Z,99783.41
2018-04-29T17:15:05.789Z,99759.58
2018-04-29T17:17:38.594Z,99737.83
2018-04-29T17:20:11.776Z,99731.52
2018-04-29T17:22:44.593Z,99716.10
2018-04-29T17:25:17.677Z,99718.73
2018-04-29T17:27:51.377Z,99703.94
2018-04-29T17:30:24.577Z,99698.23
2018-04-29T17:32:57.373Z,99699.62
2018-04-29T17:35:30.284Z,99690.87
2018-04-29T17:38:02.898Z,99693.49
2018-04-29T17:40:35.911Z,99695.97
2018-04-29T17:43:09.368Z,99703.62
2018-04-29T17:45:41.880Z,99693.82
2018-04-29T17:48:14.436Z,99694.75
2018-04-29T17:50:47.568Z,99696.28
2018-04-29T17:53:20.250Z,99690.20
2018-04-29T17:55:53.119Z,99693.88
2018-04-29T17:58:25.976Z,99683.95
2018-04-29T18:00:58.562Z,99690.08
2018-04-29T18:03:31.587Z,99686.39
2018-04-29T18:06:04.685Z,99679.66
2018-04-29T18:08:37.422Z,99679.50
2018-04-29T18:11:10.061Z,99678.77
2018-04-29T18:13:42.815Z,99686.93
2018-04-29T18:16:15.307Z,99682.02
2018-04-29T18:18:48.203Z,99675.28
2018-04-29T18:21:20.695Z,99677.52
2018-04-29T18:23:53.931Z,99678.48
2018-04-29T18:26:26.584Z,99676.08
2018-04-29T18:28:59.492Z,99685.09
2018-04-29T18:31:32.284Z,99687.85
2018-04-29T18:34:04.916Z,99685.05
2018-04-29T18:36:37.740Z,99675.47
2018-04-29T18:39:10.398Z,99665.44
2018-04-29T18:41:43.184Z,99673.15
2018-04-29T18:44:16.192Z,99669.83
2018-04-29T18:46:49.036Z,99667.50
2018-04-29T18:49:21.919Z,99673.73
2018-04-29T18:51:54.487Z,99671.77
2018-04-29T18:54:27.396Z,99678.68
2018-04-29T18:57:00.139Z,99684.41
2018-04-29T18:59:32.694Z,99685.79
2018-04-29T19:02:06.081Z,99680.20
2018-04-29T19:04:38.987Z,99679.16
2018-04-29T19:07:11.583Z,99685.83
2018-04-29T19:09:44.523Z,99678.96
2018-04-29T19:12:17.248Z,99681.39
2018-04-29T19:14:50.302Z,99679.38
2018-04-29T19:17:22.850Z,99681.95
2018-04-29T19:19:55.336Z,99680.96
2018-04-29T19:22:27.880Z,99679.73
2018-04-29T19:25:00.583Z,99679.29
2018-04-29T19:27:34.060Z,99682.37
2018-04-29T19:30:06.804Z,99681.65
2018-04-29T19:32:40.053Z,99681.00
2018-04-29T19:35:12.755Z,99674.41
2018-04-29T19:37:45.359Z,99672.41
2018-04-29T19:40:18.151Z,99674.80
2018-04-29T19:42:51.051Z,99672.00
2018-04-29T19:45:23.543Z,99674.35
2018-04-29T19:47:56.055Z,99664.69
2018-04-29T19:50:28.991Z,99669.89
2018-04-29T19:53:02.419Z,99669.06
2018-04-29T19:55:35.206Z,99666.00
2018-04-29T19:58:08.001Z,99656.27
2018-04-29T20:00:40.744Z,99647.89
2018-04-29T20:03:13.445Z,99643.88
2018-04-29T20:05:45.928Z,99641.30
2018-04-29T20:08:18.608Z,99631.58
2018-04-29T20:10:51.299Z,99629.33
2018-04-29T20:13:24.064Z,99633.24
2018-04-29T20:15:56.603Z,99630.88
2018-04-29T20:18:29.215Z,99626.86
2018-04-29T20:21:01.740Z,99617.63
2018-04-29T20:23:34.487Z,99606.42
2018-04-29T20:26:07.954Z,99606.06
2018-04-29T20:28:40.823Z,99610.43
2018-04-29T20:31:13.519Z,99605.08
2018-04-29T20:33:46.400Z,99600.94
2018-04-29T20:36:18.962Z,99598.27
2018-04-29T20:38:52.448Z,99595.45
2018-04-29T20:41:25.116Z,99599.58
2018-04-29T20:43:57.767Z,99594.97
2018-04-29T20:46:30.619Z,99590.45
2018-04-29T20:49:04.392Z,99588.19
2018-04-29T20:51:37.771Z,99580.42
2018-04-29T20:54:10.827Z,99576.70
2018-04-29T20:56:43.514Z,99573.23
2018-04-29T20:59:16.225Z,99576.67
2018-04-29T21:01:48.723Z,99573.82
2018-04-29T21:04:21.494Z,99573.13
2018-04-29T21:06:53.984Z,99577.08
2018-04-29T21:09:26.645Z,99571.83
2018-04-29T21:11:59.282Z,99571.98
2018-04-29T21:14:32.712Z,99570.59
2018-04-29T21:17:05.679Z,99557.13
2018-04-29T21:19:38.339Z,99557.36
2018-04-29T21:22:11.039Z,99548.55
2018-04-29T21:24:44.033Z,99551.55
2018-04-29T21:27:16.544Z,99543.30
2018-04-29T21:29:49.682Z,99532.45
2018-04-29T21:32:22.229Z,99527.27
2018-04-29T21:34:54.897Z,99510.58
2018-04-29T21:37:27.701Z,99505.33
2018-04-29T21:40:00.271Z,99504.27
2018-04-29T21:42:33.232Z,99498.16
2018-04-29T21:45:06.027Z,99501.92
2018-04-29T21:47:39.022Z,99497.05
2018-04-29T21:50:11.691Z,99493.43
2018-04-29T21:52:44.252Z,99494.28
2018-04-29T21:55:16.772Z,99483.48
2018-04-29T21:57:49.263Z,99477.33
2018-04-29T22:00:21.777Z,99471.12
2018-04-29T22:02:54.324Z,99463.65
2018-04-29T22:05:26.844Z,99465.53
2018-04-29T22:07:59.330Z,99466.06
2018-04-29T22:10:32.447Z,99458.88
2018-04-29T22:13:05.091Z,99460.89
2018-04-29T22:15:37.655Z,99450.98
2018-04-29T22:18:10.247Z,99453.76
2018-04-29T22:20:42.843Z,99446.74
2018-04-29T22:23:15.338Z,99440.04
2018-04-29T22:25:47.850Z,99442.11
2018-04-29T22:28:26.329Z,99436.37
2018-04-29T22:30:58.929Z,99439.56
2018-04-29T22:33:31.662Z,99440.86
2018-04-29T22:36:04.189Z,99435.61
2018-04-29T22:38:36.679Z,99440.41
2018-04-29T22:41:09.259Z,99427.49
2018-04-29T22:43:41.768Z,99434.80
2018-04-29T22:46:14.284Z,99440.05
2018-04-29T22:48:46.811Z,99437.34
2018-04-29T22:51:19.344Z,99424.48
2018-04-29T22:53:51.829Z,99431.37
2018-04-29T22:56:24.368Z,99433.53
2018-04-29T22:58:56.861Z,99430.48
2018-04-29T23:01:29.437Z,99425.66
2018-04-29T23:04:02.503Z,99429.64
2018-04-29T23:06:35.028Z,99431.14
2018-04-29T23:09:07.538Z,99423.55
2018-04-29T23:11:40.048Z,99418.84
2018-04-29T23:14:12.571Z,99414.16
2018-04-29T23:16:45.077Z,99400.38
2018-04-29T23:19:17.563Z,99392.83
2018-04-29T23:21:50.079Z,99389.52
2018-04-29T23:24:22.565Z,99382.69
2018-04-29T23:26:55.100Z,99379.17
2018-04-29T23:29:27.586Z,99379.56
2018-04-29T23:32:00.158Z,99376.81
2018-04-29T23:34:32.647Z,99368.42
2018-04-29T23:37:05.156Z,99363.16
2018-04-29T23:39:37.647Z,99359.78
2018-04-29T23:42:10.155Z,99357.61
2018-04-29T23:44:42.689Z,99361.70
2018-04-29T23:47:15.199Z,99354.86
2018-04-29T23:49:47.682Z,99351.80
2018-04-29T23:52:20.188Z,99349.69
2018-04-29T23:54:52.676Z,99343.42
2018-04-29T23:57:25.189Z,99343.38
2018-04-29T23:59:57.680Z,99342.12
